sensor_id;sensor_type;location;lat;lon;timestamp;P1;durP1;ratioP1;P2;durP2;ratioP2
13985;SDS011;7067;51.832;8.296;2024-01-25T00:01:26;31.00;;;6.40;;
13985;SDS011;7067;51.832;8.296;2024-01-25T00:03:51;31.45;;;7.88;;
13985;SDS011;7067;51.832;8.296;2024-01-25T00:06:16;34.75;;;5.68;;
13985;SDS011;7067;51.832;8.296;2024-01-25T00:08:42;27.65;;;5.55;;
13985;SDS011;7067;51.832;8.296;2024-01-25T00:11:07;39.60;;;7.03;;
13985;SDS011;7067;51.832;8.296;2024-01-25T00:13:34;24.55;;;4.68;;
13985;SDS011;7067;51.832;8.296;2024-01-25T00:15:59;25.73;;;6.13;;
13985;SDS011;7067;51.832;8.296;2024-01-25T00:18:25;33.28;;;6.03;;
13985;SDS011;7067;51.832;8.296;2024-01-25T00:20:50;25.65;;;5.75;;
13985;SDS011;7067;51.832;8.296;2024-01-25T00:23:16;36.03;;;7.15;;
13985;SDS011;7067;51.832;8.296;2024-01-25T00:25:42;33.03;;;6.55;;
13985;SDS011;7067;51.832;8.296;2024-01-25T00:28:07;26.90;;;6.13;;
13985;SDS011;7067;51.832;8.296;2024-01-25T00:30:32;33.80;;;7.18;;
13985;SDS011;7067;51.832;8.296;2024-01-25T00:32:58;28.00;;;6.18;;
13985;SDS011;7067;51.832;8.296;2024-01-25T00:35:24;26.60;;;6.55;;
13985;SDS011;7067;51.832;8.296;2024-01-25T00:37:50;32.03;;;6.88;;
13985;SDS011;7067;51.832;8.296;2024-01-25T00:40:15;37.20;;;6.78;;
13985;SDS011;7067;51.832;8.296;2024-01-25T00:42:42;26.20;;;5.93;;
13985;SDS011;7067;51.832;8.296;2024-01-25T00:45:09;33.05;;;6.88;;
13985;SDS011;7067;51.832;8.296;2024-01-25T00:47:36;20.92;;;5.43;;
13985;SDS011;7067;51.832;8.296;2024-01-25T00:50:01;31.45;;;6.45;;
13985;SDS011;7067;51.832;8.296;2024-01-25T00:52:27;29.48;;;6.10;;
13985;SDS011;7067;51.832;8.296;2024-01-25T00:54:53;34.80;;;7.07;;
13985;SDS011;7067;51.832;8.296;2024-01-25T00:57:18;37.05;;;6.78;;
13985;SDS011;7067;51.832;8.296;2024-01-25T00:59:44;30.38;;;5.40;;
13985;SDS011;7067;51.832;8.296;2024-01-25T01:02:10;34.03;;;5.78;;
13985;SDS011;7067;51.832;8.296;2024-01-25T01:04:37;30.50;;;5.88;;
13985;SDS011;7067;51.832;8.296;2024-01-25T01:07:03;30.70;;;6.38;;
13985;SDS011;7067;51.832;8.296;2024-01-25T01:09:28;34.22;;;6.47;;
13985;SDS011;7067;51.832;8.296;2024-01-25T01:11:54;32.10;;;6.80;;
13985;SDS011;7067;51.832;8.296;2024-01-25T01:14:19;34.58;;;7.45;;
13985;SDS011;7067;51.832;8.296;2024-01-25T01:16:45;29.58;;;6.30;;
13985;SDS011;7067;51.832;8.296;2024-01-25T01:19:10;24.73;;;6.32;;
13985;SDS011;7067;51.832;8.296;2024-01-25T01:21:36;35.95;;;6.53;;
13985;SDS011;7067;51.832;8.296;2024-01-25T01:24:01;31.27;;;6.00;;
13985;SDS011;7067;51.832;8.296;2024-01-25T01:26:27;27.70;;;5.95;;
13985;SDS011;7067;51.832;8.296;2024-01-25T01:28:52;32.28;;;7.15;;
13985;SDS011;7067;51.832;8.296;2024-01-25T01:31:18;34.80;;;6.80;;
13985;SDS011;7067;51.832;8.296;2024-01-25T01:33:43;39.78;;;7.85;;
13985;SDS011;7067;51.832;8.296;2024-01-25T01:36:08;37.53;;;6.55;;
13985;SDS011;7067;51.832;8.296;2024-01-25T01:38:34;35.65;;;6.60;;
13985;SDS011;7067;51.832;8.296;2024-01-25T01:40:59;41.15;;;7.93;;
13985;SDS011;7067;51.832;8.296;2024-01-25T01:43:24;32.17;;;6.30;;
13985;SDS011;7067;51.832;8.296;2024-01-25T01:45:50;28.83;;;7.13;;
13985;SDS011;7067;51.832;8.296;2024-01-25T01:48:16;35.65;;;7.32;;
13985;SDS011;7067;51.832;8.296;2024-01-25T01:50:42;29.70;;;6.40;;
13985;SDS011;7067;51.832;8.296;2024-01-25T01:53:08;33.08;;;6.78;;
13985;SDS011;7067;51.832;8.296;2024-01-25T01:55:33;29.63;;;5.82;;
13985;SDS011;7067;51.832;8.296;2024-01-25T01:57:59;31.63;;;7.00;;
13985;SDS011;7067;51.832;8.296;2024-01-25T02:00:24;38.83;;;7.22;;
13985;SDS011;7067;51.832;8.296;2024-01-25T02:02:50;29.73;;;5.95;;
13985;SDS011;7067;51.832;8.296;2024-01-25T02:05:16;28.58;;;7.63;;
13985;SDS011;7067;51.832;8.296;2024-01-25T02:07:41;37.20;;;7.18;;
13985;SDS011;7067;51.832;8.296;2024-01-25T02:10:07;31.23;;;6.15;;
13985;SDS011;7067;51.832;8.296;2024-01-25T02:12:33;36.33;;;8.02;;
13985;SDS011;7067;51.832;8.296;2024-01-25T02:14:59;30.98;;;6.20;;
13985;SDS011;7067;51.832;8.296;2024-01-25T02:17:24;34.58;;;6.45;;
13985;SDS011;7067;51.832;8.296;2024-01-25T02:19:49;25.98;;;6.07;;
13985;SDS011;7067;51.832;8.296;2024-01-25T02:22:16;33.13;;;6.63;;
13985;SDS011;7067;51.832;8.296;2024-01-25T02:24:43;34.15;;;8.13;;
13985;SDS011;7067;51.832;8.296;2024-01-25T02:27:09;24.63;;;6.13;;
13985;SDS011;7067;51.832;8.296;2024-01-25T02:29:34;38.58;;;6.63;;
13985;SDS011;7067;51.832;8.296;2024-01-25T02:31:59;37.70;;;7.47;;
13985;SDS011;7067;51.832;8.296;2024-01-25T02:34:25;31.77;;;5.90;;
13985;SDS011;7067;51.832;8.296;2024-01-25T02:36:50;29.88;;;6.22;;
13985;SDS011;7067;51.832;8.296;2024-01-25T02:39:16;28.30;;;6.63;;
13985;SDS011;7067;51.832;8.296;2024-01-25T02:41:41;32.42;;;6.57;;
13985;SDS011;7067;51.832;8.296;2024-01-25T02:44:06;32.30;;;5.88;;
13985;SDS011;7067;51.832;8.296;2024-01-25T02:46:33;37.05;;;7.82;;
13985;SDS011;7067;51.832;8.296;2024-01-25T02:48:58;32.25;;;6.20;;
13985;SDS011;7067;51.832;8.296;2024-01-25T02:51:24;33.80;;;7.75;;
13985;SDS011;7067;51.832;8.296;2024-01-25T02:53:49;34.50;;;5.90;;
13985;SDS011;7067;51.832;8.296;2024-01-25T02:56:14;35.28;;;6.85;;
13985;SDS011;7067;51.832;8.296;2024-01-25T02:58:39;32.08;;;8.30;;
13985;SDS011;7067;51.832;8.296;2024-01-25T03:01:05;31.38;;;6.78;;
13985;SDS011;7067;51.832;8.296;2024-01-25T03:03:30;24.80;;;6.10;;
13985;SDS011;7067;51.832;8.296;2024-01-25T03:05:55;32.90;;;5.80;;
13985;SDS011;7067;51.832;8.296;2024-01-25T03:08:21;31.40;;;7.80;;
13985;SDS011;7067;51.832;8.296;2024-01-25T03:10:46;35.60;;;7.68;;
13985;SDS011;7067;51.832;8.296;2024-01-25T03:13:14;32.40;;;6.32;;
13985;SDS011;7067;51.832;8.296;2024-01-25T03:15:41;35.08;;;6.18;;
13985;SDS011;7067;51.832;8.296;2024-01-25T03:18:06;34.50;;;7.43;;
13985;SDS011;7067;51.832;8.296;2024-01-25T03:20:32;40.88;;;6.68;;
13985;SDS011;7067;51.832;8.296;2024-01-25T03:22:57;40.42;;;6.93;;
13985;SDS011;7067;51.832;8.296;2024-01-25T03:25:22;33.30;;;7.47;;
13985;SDS011;7067;51.832;8.296;2024-01-25T03:27:48;29.50;;;6.13;;
13985;SDS011;7067;51.832;8.296;2024-01-25T03:30:13;38.05;;;6.93;;
13985;SDS011;7067;51.832;8.296;2024-01-25T03:32:39;35.92;;;6.97;;
13985;SDS011;7067;51.832;8.296;2024-01-25T03:35:04;29.30;;;6.32;;
13985;SDS011;7067;51.832;8.296;2024-01-25T03:37:30;32.15;;;7.82;;
13985;SDS011;7067;51.832;8.296;2024-01-25T03:39:55;36.60;;;6.72;;
13985;SDS011;7067;51.832;8.296;2024-01-25T03:42:20;35.55;;;7.13;;
13985;SDS011;7067;51.832;8.296;2024-01-25T03:44:46;35.50;;;7.50;;
13985;SDS011;7067;51.832;8.296;2024-01-25T03:47:12;27.88;;;5.22;;
13985;SDS011;7067;51.832;8.296;2024-01-25T03:49:37;34.33;;;7.35;;
13985;SDS011;7067;51.832;8.296;2024-01-25T03:52:03;35.35;;;6.47;;
13985;SDS011;7067;51.832;8.296;2024-01-25T03:54:29;43.25;;;6.40;;
13985;SDS011;7067;51.832;8.296;2024-01-25T03:56:55;26.77;;;6.45;;
13985;SDS011;7067;51.832;8.296;2024-01-25T03:59:20;31.27;;;6.55;;
13985;SDS011;7067;51.832;8.296;2024-01-25T04:01:45;37.70;;;7.40;;
13985;SDS011;7067;51.832;8.296;2024-01-25T04:04:14;36.17;;;7.15;;
13985;SDS011;7067;51.832;8.296;2024-01-25T04:06:43;33.97;;;7.10;;
13985;SDS011;7067;51.832;8.296;2024-01-25T04:09:11;31.50;;;5.65;;
13985;SDS011;7067;51.832;8.296;2024-01-25T04:11:36;28.80;;;5.60;;
13985;SDS011;7067;51.832;8.296;2024-01-25T04:14:02;38.03;;;7.10;;
13985;SDS011;7067;51.832;8.296;2024-01-25T04:16:28;40.83;;;7.15;;
13985;SDS011;7067;51.832;8.296;2024-01-25T04:18:54;36.85;;;6.85;;
13985;SDS011;7067;51.832;8.296;2024-01-25T04:21:19;34.70;;;6.75;;
13985;SDS011;7067;51.832;8.296;2024-01-25T04:23:44;32.28;;;6.57;;
13985;SDS011;7067;51.832;8.296;2024-01-25T04:26:10;33.30;;;5.97;;
13985;SDS011;7067;51.832;8.296;2024-01-25T04:28:35;28.90;;;6.55;;
13985;SDS011;7067;51.832;8.296;2024-01-25T04:31:02;28.98;;;6.75;;
13985;SDS011;7067;51.832;8.296;2024-01-25T04:33:28;32.17;;;6.20;;
13985;SDS011;7067;51.832;8.296;2024-01-25T04:35:53;29.45;;;6.07;;
13985;SDS011;7067;51.832;8.296;2024-01-25T04:38:19;29.58;;;6.55;;
13985;SDS011;7067;51.832;8.296;2024-01-25T04:40:44;31.60;;;7.45;;
13985;SDS011;7067;51.832;8.296;2024-01-25T04:43:09;27.10;;;5.20;;
13985;SDS011;7067;51.832;8.296;2024-01-25T04:45:36;27.02;;;5.90;;
13985;SDS011;7067;51.832;8.296;2024-01-25T04:48:01;34.03;;;7.22;;
13985;SDS011;7067;51.832;8.296;2024-01-25T04:50:27;28.90;;;6.00;;
13985;SDS011;7067;51.832;8.296;2024-01-25T04:52:52;34.25;;;7.03;;
13985;SDS011;7067;51.832;8.296;2024-01-25T04:55:18;34.35;;;6.07;;
13985;SDS011;7067;51.832;8.296;2024-01-25T04:57:44;32.50;;;6.53;;
13985;SDS011;7067;51.832;8.296;2024-01-25T05:00:09;30.05;;;6.07;;
13985;SDS011;7067;51.832;8.296;2024-01-25T05:02:35;29.70;;;6.65;;
13985;SDS011;7067;51.832;8.296;2024-01-25T05:05:01;32.00;;;6.28;;
13985;SDS011;7067;51.832;8.296;2024-01-25T05:07:26;32.83;;;7.07;;
13985;SDS011;7067;51.832;8.296;2024-01-25T05:09:51;36.30;;;7.35;;
13985;SDS011;7067;51.832;8.296;2024-01-25T05:12:17;32.30;;;7.03;;
13985;SDS011;7067;51.832;8.296;2024-01-25T05:14:42;28.92;;;6.07;;
13985;SDS011;7067;51.832;8.296;2024-01-25T05:17:07;35.83;;;6.95;;
13985;SDS011;7067;51.832;8.296;2024-01-25T05:19:33;37.10;;;7.97;;
13985;SDS011;7067;51.832;8.296;2024-01-25T05:21:58;34.78;;;6.25;;
13985;SDS011;7067;51.832;8.296;2024-01-25T05:24:23;35.72;;;6.53;;
13985;SDS011;7067;51.832;8.296;2024-01-25T05:26:49;31.48;;;5.60;;
13985;SDS011;7067;51.832;8.296;2024-01-25T05:29:14;34.70;;;8.35;;
13985;SDS011;7067;51.832;8.296;2024-01-25T05:31:41;35.30;;;6.93;;
13985;SDS011;7067;51.832;8.296;2024-01-25T05:34:06;32.85;;;6.60;;
13985;SDS011;7067;51.832;8.296;2024-01-25T05:36:32;33.42;;;7.70;;
13985;SDS011;7067;51.832;8.296;2024-01-25T05:38:57;37.53;;;8.27;;
13985;SDS011;7067;51.832;8.296;2024-01-25T05:41:22;38.70;;;9.02;;
13985;SDS011;7067;51.832;8.296;2024-01-25T05:43:48;37.20;;;7.65;;
13985;SDS011;7067;51.832;8.296;2024-01-25T05:46:13;33.65;;;6.63;;
13985;SDS011;7067;51.832;8.296;2024-01-25T05:48:39;35.17;;;7.88;;
13985;SDS011;7067;51.832;8.296;2024-01-25T05:51:04;32.47;;;5.68;;
13985;SDS011;7067;51.832;8.296;2024-01-25T05:53:30;29.40;;;6.65;;
13985;SDS011;7067;51.832;8.296;2024-01-25T05:55:55;34.10;;;6.43;;
13985;SDS011;7067;51.832;8.296;2024-01-25T05:58:20;34.05;;;6.47;;
13985;SDS011;7067;51.832;8.296;2024-01-25T06:00:45;33.47;;;6.82;;
13985;SDS011;7067;51.832;8.296;2024-01-25T06:03:11;43.80;;;6.70;;
13985;SDS011;7067;51.832;8.296;2024-01-25T06:05:36;29.25;;;6.40;;
13985;SDS011;7067;51.832;8.296;2024-01-25T06:08:02;40.20;;;6.55;;
13985;SDS011;7067;51.832;8.296;2024-01-25T06:10:27;32.95;;;6.57;;
13985;SDS011;7067;51.832;8.296;2024-01-25T06:12:53;34.67;;;7.72;;
13985;SDS011;7067;51.832;8.296;2024-01-25T06:15:18;29.73;;;6.57;;
13985;SDS011;7067;51.832;8.296;2024-01-25T06:17:43;30.02;;;7.15;;
13985;SDS011;7067;51.832;8.296;2024-01-25T06:20:09;41.55;;;5.88;;
13985;SDS011;7067;51.832;8.296;2024-01-25T06:22:35;32.30;;;5.88;;
13985;SDS011;7067;51.832;8.296;2024-01-25T06:25:01;32.40;;;6.63;;
13985;SDS011;7067;51.832;8.296;2024-01-25T06:27:28;34.30;;;6.50;;
13985;SDS011;7067;51.832;8.296;2024-01-25T06:29:54;29.23;;;6.65;;
13985;SDS011;7067;51.832;8.296;2024-01-25T06:32:19;37.70;;;7.25;;
13985;SDS011;7067;51.832;8.296;2024-01-25T06:34:44;38.20;;;6.82;;
13985;SDS011;7067;51.832;8.296;2024-01-25T06:37:10;30.92;;;6.60;;
13985;SDS011;7067;51.832;8.296;2024-01-25T06:39:36;41.22;;;6.57;;
13985;SDS011;7067;51.832;8.296;2024-01-25T06:42:02;31.02;;;6.20;;
13985;SDS011;7067;51.832;8.296;2024-01-25T06:44:27;35.58;;;6.57;;
13985;SDS011;7067;51.832;8.296;2024-01-25T06:46:53;39.10;;;6.88;;
13985;SDS011;7067;51.832;8.296;2024-01-25T06:49:18;42.22;;;6.53;;
13985;SDS011;7067;51.832;8.296;2024-01-25T06:51:43;40.50;;;7.50;;
13985;SDS011;7067;51.832;8.296;2024-01-25T06:54:09;31.00;;;6.38;;
13985;SDS011;7067;51.832;8.296;2024-01-25T06:56:34;35.55;;;6.45;;
13985;SDS011;7067;51.832;8.296;2024-01-25T06:59:00;37.92;;;7.95;;
13985;SDS011;7067;51.832;8.296;2024-01-25T07:01:25;35.70;;;6.05;;
13985;SDS011;7067;51.832;8.296;2024-01-25T07:03:52;32.45;;;6.60;;
13985;SDS011;7067;51.832;8.296;2024-01-25T07:06:18;42.72;;;7.25;;
13985;SDS011;7067;51.832;8.296;2024-01-25T07:08:44;35.95;;;6.55;;
13985;SDS011;7067;51.832;8.296;2024-01-25T07:11:10;37.85;;;7.15;;
13985;SDS011;7067;51.832;8.296;2024-01-25T07:13:35;30.83;;;5.53;;
13985;SDS011;7067;51.832;8.296;2024-01-25T07:16:00;40.92;;;7.65;;
13985;SDS011;7067;51.832;8.296;2024-01-25T07:18:26;37.97;;;6.50;;
13985;SDS011;7067;51.832;8.296;2024-01-25T07:20:51;39.17;;;6.75;;
13985;SDS011;7067;51.832;8.296;2024-01-25T07:23:17;34.65;;;6.68;;
13985;SDS011;7067;51.832;8.296;2024-01-25T07:25:42;42.70;;;6.97;;
13985;SDS011;7067;51.832;8.296;2024-01-25T07:28:08;41.88;;;8.27;;
13985;SDS011;7067;51.832;8.296;2024-01-25T07:30:33;39.65;;;7.97;;
13985;SDS011;7067;51.832;8.296;2024-01-25T07:32:58;42.10;;;7.18;;
13985;SDS011;7067;51.832;8.296;2024-01-25T07:35:24;32.75;;;6.47;;
13985;SDS011;7067;51.832;8.296;2024-01-25T07:37:49;32.22;;;7.43;;
13985;SDS011;7067;51.832;8.296;2024-01-25T07:40:15;37.10;;;7.10;;
13985;SDS011;7067;51.832;8.296;2024-01-25T07:42:40;37.92;;;7.00;;
13985;SDS011;7067;51.832;8.296;2024-01-25T07:45:06;35.50;;;6.47;;
13985;SDS011;7067;51.832;8.296;2024-01-25T07:47:32;32.53;;;7.35;;
13985;SDS011;7067;51.832;8.296;2024-01-25T07:49:57;32.28;;;6.90;;
13985;SDS011;7067;51.832;8.296;2024-01-25T07:52:22;37.25;;;7.18;;
13985;SDS011;7067;51.832;8.296;2024-01-25T07:54:48;33.13;;;7.00;;
13985;SDS011;7067;51.832;8.296;2024-01-25T07:57:13;41.20;;;6.50;;
13985;SDS011;7067;51.832;8.296;2024-01-25T07:59:38;45.85;;;7.65;;
13985;SDS011;7067;51.832;8.296;2024-01-25T08:02:04;34.67;;;7.50;;
13985;SDS011;7067;51.832;8.296;2024-01-25T08:04:29;35.95;;;7.00;;
13985;SDS011;7067;51.832;8.296;2024-01-25T08:06:55;43.65;;;7.38;;
13985;SDS011;7067;51.832;8.296;2024-01-25T08:09:21;37.38;;;8.07;;
13985;SDS011;7067;51.832;8.296;2024-01-25T08:11:47;42.30;;;6.85;;
13985;SDS011;7067;51.832;8.296;2024-01-25T08:14:12;49.80;;;8.90;;
13985;SDS011;7067;51.832;8.296;2024-01-25T08:16:37;35.80;;;7.50;;
13985;SDS011;7067;51.832;8.296;2024-01-25T08:19:03;36.72;;;6.78;;
13985;SDS011;7067;51.832;8.296;2024-01-25T08:21:29;35.05;;;6.43;;
13985;SDS011;7067;51.832;8.296;2024-01-25T08:23:55;41.50;;;7.40;;
13985;SDS011;7067;51.832;8.296;2024-01-25T08:26:20;43.28;;;7.85;;
13985;SDS011;7067;51.832;8.296;2024-01-25T08:28:46;38.85;;;7.93;;
13985;SDS011;7067;51.832;8.296;2024-01-25T08:31:11;45.80;;;7.95;;
13985;SDS011;7067;51.832;8.296;2024-01-25T08:33:38;37.10;;;7.32;;
13985;SDS011;7067;51.832;8.296;2024-01-25T08:36:06;38.75;;;7.97;;
13985;SDS011;7067;51.832;8.296;2024-01-25T08:38:32;42.72;;;7.85;;
13985;SDS011;7067;51.832;8.296;2024-01-25T08:40:57;41.47;;;7.25;;
13985;SDS011;7067;51.832;8.296;2024-01-25T08:43:23;38.80;;;7.05;;
13985;SDS011;7067;51.832;8.296;2024-01-25T08:45:48;40.17;;;8.02;;
13985;SDS011;7067;51.832;8.296;2024-01-25T08:48:14;37.83;;;6.65;;
13985;SDS011;7067;51.832;8.296;2024-01-25T08:50:39;42.83;;;8.98;;
13985;SDS011;7067;51.832;8.296;2024-01-25T08:53:04;43.30;;;9.43;;
13985;SDS011;7067;51.832;8.296;2024-01-25T08:55:30;41.30;;;8.65;;
13985;SDS011;7067;51.832;8.296;2024-01-25T08:57:57;30.05;;;7.50;;
13985;SDS011;7067;51.832;8.296;2024-01-25T09:00:22;42.58;;;8.88;;
13985;SDS011;7067;51.832;8.296;2024-01-25T09:02:47;35.65;;;8.32;;
13985;SDS011;7067;51.832;8.296;2024-01-25T09:05:13;38.28;;;7.72;;
13985;SDS011;7067;51.832;8.296;2024-01-25T09:07:38;44.83;;;7.72;;
13985;SDS011;7067;51.832;8.296;2024-01-25T09:10:05;45.53;;;9.85;;
13985;SDS011;7067;51.832;8.296;2024-01-25T09:12:30;38.97;;;7.70;;
13985;SDS011;7067;51.832;8.296;2024-01-25T09:14:56;35.58;;;8.23;;
13985;SDS011;7067;51.832;8.296;2024-01-25T09:17:23;41.90;;;8.15;;
13985;SDS011;7067;51.832;8.296;2024-01-25T09:19:49;33.80;;;8.88;;
13985;SDS011;7067;51.832;8.296;2024-01-25T09:22:17;37.85;;;8.20;;
13985;SDS011;7067;51.832;8.296;2024-01-25T09:24:44;34.97;;;7.03;;
13985;SDS011;7067;51.832;8.296;2024-01-25T09:27:12;48.22;;;8.88;;
13985;SDS011;7067;51.832;8.296;2024-01-25T09:29:39;45.78;;;7.70;;
13985;SDS011;7067;51.832;8.296;2024-01-25T09:32:06;34.40;;;8.30;;
13985;SDS011;7067;51.832;8.296;2024-01-25T09:34:34;35.03;;;7.22;;
13985;SDS011;7067;51.832;8.296;2024-01-25T09:36:59;37.45;;;8.73;;
13985;SDS011;7067;51.832;8.296;2024-01-25T09:39:25;30.05;;;6.93;;
13985;SDS011;7067;51.832;8.296;2024-01-25T09:41:50;38.80;;;9.30;;
13985;SDS011;7067;51.832;8.296;2024-01-25T09:44:16;50.70;;;10.75;;
13985;SDS011;7067;51.832;8.296;2024-01-25T09:46:43;36.22;;;7.75;;
13985;SDS011;7067;51.832;8.296;2024-01-25T09:49:09;34.08;;;7.85;;
13985;SDS011;7067;51.832;8.296;2024-01-25T09:51:40;36.40;;;8.10;;
13985;SDS011;7067;51.832;8.296;2024-01-25T09:54:06;41.03;;;8.57;;
13985;SDS011;7067;51.832;8.296;2024-01-25T09:56:32;48.45;;;8.07;;
13985;SDS011;7067;51.832;8.296;2024-01-25T09:59:00;39.97;;;8.07;;
13985;SDS011;7067;51.832;8.296;2024-01-25T10:01:28;38.40;;;8.75;;
13985;SDS011;7067;51.832;8.296;2024-01-25T10:03:54;32.83;;;7.60;;
13985;SDS011;7067;51.832;8.296;2024-01-25T10:06:23;35.38;;;8.07;;
13985;SDS011;7067;51.832;8.296;2024-01-25T10:08:50;32.63;;;8.18;;
13985;SDS011;7067;51.832;8.296;2024-01-25T10:11:18;32.17;;;8.82;;
13985;SDS011;7067;51.832;8.296;2024-01-25T10:13:45;37.30;;;7.85;;
13985;SDS011;7067;51.832;8.296;2024-01-25T10:16:18;34.55;;;7.32;;
13985;SDS011;7067;51.832;8.296;2024-01-25T10:18:45;35.17;;;7.50;;
13985;SDS011;7067;51.832;8.296;2024-01-25T10:21:12;45.10;;;9.30;;
13985;SDS011;7067;51.832;8.296;2024-01-25T10:23:38;35.75;;;8.40;;
13985;SDS011;7067;51.832;8.296;2024-01-25T10:26:04;41.95;;;8.88;;
13985;SDS011;7067;51.832;8.296;2024-01-25T10:28:30;37.55;;;9.20;;
13985;SDS011;7067;51.832;8.296;2024-01-25T10:31:00;30.08;;;7.75;;
13985;SDS011;7067;51.832;8.296;2024-01-25T10:33:29;41.33;;;9.52;;
13985;SDS011;7067;51.832;8.296;2024-01-25T10:35:55;42.42;;;9.63;;
13985;SDS011;7067;51.832;8.296;2024-01-25T10:38:27;34.00;;;7.40;;
13985;SDS011;7067;51.832;8.296;2024-01-25T10:43:23;40.78;;;8.77;;
13985;SDS011;7067;51.832;8.296;2024-01-25T10:45:48;42.72;;;10.18;;
13985;SDS011;7067;51.832;8.296;2024-01-25T10:50:44;35.72;;;8.88;;
13985;SDS011;7067;51.832;8.296;2024-01-25T10:53:11;43.30;;;8.65;;
13985;SDS011;7067;51.832;8.296;2024-01-25T10:55:37;45.83;;;9.45;;
13985;SDS011;7067;51.832;8.296;2024-01-25T10:58:02;44.22;;;9.63;;
13985;SDS011;7067;51.832;8.296;2024-01-25T11:00:28;36.25;;;8.30;;
13985;SDS011;7067;51.832;8.296;2024-01-25T11:02:56;40.22;;;9.07;;
13985;SDS011;7067;51.832;8.296;2024-01-25T11:05:22;37.90;;;9.43;;
13985;SDS011;7067;51.832;8.296;2024-01-25T11:07:48;44.63;;;9.80;;
13985;SDS011;7067;51.832;8.296;2024-01-25T11:10:16;36.80;;;10.02;;
13985;SDS011;7067;51.832;8.296;2024-01-25T11:15:30;42.60;;;9.48;;
13985;SDS011;7067;51.832;8.296;2024-01-25T11:17:55;40.58;;;9.55;;
13985;SDS011;7067;51.832;8.296;2024-01-25T11:20:22;35.80;;;9.27;;
13985;SDS011;7067;51.832;8.296;2024-01-25T11:22:48;43.47;;;10.82;;
13985;SDS011;7067;51.832;8.296;2024-01-25T11:25:18;39.22;;;10.77;;
13985;SDS011;7067;51.832;8.296;2024-01-25T11:27:45;44.05;;;11.48;;
13985;SDS011;7067;51.832;8.296;2024-01-25T11:30:11;46.28;;;11.80;;
13985;SDS011;7067;51.832;8.296;2024-01-25T11:32:38;49.05;;;11.00;;
13985;SDS011;7067;51.832;8.296;2024-01-25T11:35:04;47.35;;;12.10;;
13985;SDS011;7067;51.832;8.296;2024-01-25T11:37:30;49.30;;;12.43;;
13985;SDS011;7067;51.832;8.296;2024-01-25T11:39:55;41.85;;;11.02;;
13985;SDS011;7067;51.832;8.296;2024-01-25T11:42:21;46.35;;;12.73;;
13985;SDS011;7067;51.832;8.296;2024-01-25T11:44:46;49.65;;;11.90;;
13985;SDS011;7067;51.832;8.296;2024-01-25T11:47:12;38.38;;;11.98;;
13985;SDS011;7067;51.832;8.296;2024-01-25T11:49:37;42.63;;;12.23;;
13985;SDS011;7067;51.832;8.296;2024-01-25T11:52:04;47.42;;;12.07;;
13985;SDS011;7067;51.832;8.296;2024-01-25T11:54:30;51.58;;;12.00;;
13985;SDS011;7067;51.832;8.296;2024-01-25T11:56:55;48.38;;;12.07;;
13985;SDS011;7067;51.832;8.296;2024-01-25T11:59:21;50.78;;;12.57;;
13985;SDS011;7067;51.832;8.296;2024-01-25T12:01:46;41.67;;;12.35;;
13985;SDS011;7067;51.832;8.296;2024-01-25T12:04:12;45.05;;;12.35;;
13985;SDS011;7067;51.832;8.296;2024-01-25T12:06:37;45.00;;;12.15;;
13985;SDS011;7067;51.832;8.296;2024-01-25T12:09:09;40.75;;;13.85;;
13985;SDS011;7067;51.832;8.296;2024-01-25T12:11:35;47.05;;;12.27;;
13985;SDS011;7067;51.832;8.296;2024-01-25T12:14:00;42.00;;;14.32;;
13985;SDS011;7067;51.832;8.296;2024-01-25T12:16:26;40.88;;;14.30;;
13985;SDS011;7067;51.832;8.296;2024-01-25T12:18:51;41.03;;;16.10;;
13985;SDS011;7067;51.832;8.296;2024-01-25T12:21:17;45.55;;;17.27;;
13985;SDS011;7067;51.832;8.296;2024-01-25T12:23:43;47.50;;;18.67;;
13985;SDS011;7067;51.832;8.296;2024-01-25T12:26:09;46.75;;;16.35;;
13985;SDS011;7067;51.832;8.296;2024-01-25T12:28:35;51.88;;;19.83;;
13985;SDS011;7067;51.832;8.296;2024-01-25T12:31:02;48.78;;;18.38;;
13985;SDS011;7067;51.832;8.296;2024-01-25T12:33:28;41.50;;;18.90;;
13985;SDS011;7067;51.832;8.296;2024-01-25T12:35:53;62.65;;;22.83;;
13985;SDS011;7067;51.832;8.296;2024-01-25T12:38:19;52.50;;;20.83;;
13985;SDS011;7067;51.832;8.296;2024-01-25T12:40:46;47.63;;;20.00;;
13985;SDS011;7067;51.832;8.296;2024-01-25T12:43:12;43.67;;;18.40;;
13985;SDS011;7067;51.832;8.296;2024-01-25T12:45:38;38.50;;;18.58;;
13985;SDS011;7067;51.832;8.296;2024-01-25T12:48:04;41.03;;;18.42;;
13985;SDS011;7067;51.832;8.296;2024-01-25T12:50:33;53.80;;;18.90;;
13985;SDS011;7067;51.832;8.296;2024-01-25T12:52:59;46.70;;;16.38;;
13985;SDS011;7067;51.832;8.296;2024-01-25T12:55:25;44.17;;;14.55;;
13985;SDS011;7067;51.832;8.296;2024-01-25T12:57:50;43.20;;;14.05;;
13985;SDS011;7067;51.832;8.296;2024-01-25T13:00:16;44.58;;;14.60;;
13985;SDS011;7067;51.832;8.296;2024-01-25T13:02:41;46.58;;;13.45;;
13985;SDS011;7067;51.832;8.296;2024-01-25T13:05:07;39.05;;;11.48;;
13985;SDS011;7067;51.832;8.296;2024-01-25T13:07:32;37.75;;;11.13;;
13985;SDS011;7067;51.832;8.296;2024-01-25T13:09:58;37.35;;;11.88;;
13985;SDS011;7067;51.832;8.296;2024-01-25T13:12:23;42.25;;;11.20;;
13985;SDS011;7067;51.832;8.296;2024-01-25T13:14:48;37.35;;;12.45;;
13985;SDS011;7067;51.832;8.296;2024-01-25T13:17:14;38.97;;;11.85;;
13985;SDS011;7067;51.832;8.296;2024-01-25T13:19:39;40.78;;;12.05;;
13985;SDS011;7067;51.832;8.296;2024-01-25T13:22:05;41.85;;;12.55;;
13985;SDS011;7067;51.832;8.296;2024-01-25T13:24:30;46.28;;;12.35;;
13985;SDS011;7067;51.832;8.296;2024-01-25T13:26:55;44.00;;;13.18;;
13985;SDS011;7067;51.832;8.296;2024-01-25T13:29:21;37.45;;;11.05;;
13985;SDS011;7067;51.832;8.296;2024-01-25T13:31:46;45.63;;;12.35;;
13985;SDS011;7067;51.832;8.296;2024-01-25T13:34:12;47.85;;;13.68;;
13985;SDS011;7067;51.832;8.296;2024-01-25T13:36:38;38.33;;;12.68;;
13985;SDS011;7067;51.832;8.296;2024-01-25T13:39:03;39.33;;;12.45;;
13985;SDS011;7067;51.832;8.296;2024-01-25T13:41:28;48.25;;;12.20;;
13985;SDS011;7067;51.832;8.296;2024-01-25T13:43:54;43.17;;;11.77;;
13985;SDS011;7067;51.832;8.296;2024-01-25T13:46:19;37.38;;;12.48;;
13985;SDS011;7067;51.832;8.296;2024-01-25T13:48:44;46.42;;;11.50;;
13985;SDS011;7067;51.832;8.296;2024-01-25T13:51:10;42.13;;;11.85;;
13985;SDS011;7067;51.832;8.296;2024-01-25T13:53:36;39.60;;;11.93;;
13985;SDS011;7067;51.832;8.296;2024-01-25T13:56:01;34.50;;;10.05;;
13985;SDS011;7067;51.832;8.296;2024-01-25T13:58:27;37.20;;;9.50;;
13985;SDS011;7067;51.832;8.296;2024-01-25T14:00:52;41.92;;;10.02;;
13985;SDS011;7067;51.832;8.296;2024-01-25T14:03:18;39.28;;;10.93;;
13985;SDS011;7067;51.832;8.296;2024-01-25T14:05:43;44.25;;;10.30;;
13985;SDS011;7067;51.832;8.296;2024-01-25T14:08:09;34.67;;;10.65;;
13985;SDS011;7067;51.832;8.296;2024-01-25T14:10:34;35.13;;;9.55;;
13985;SDS011;7067;51.832;8.296;2024-01-25T14:13:00;35.03;;;10.07;;
13985;SDS011;7067;51.832;8.296;2024-01-25T14:15:25;38.70;;;11.30;;
13985;SDS011;7067;51.832;8.296;2024-01-25T14:17:51;34.17;;;8.75;;
13985;SDS011;7067;51.832;8.296;2024-01-25T14:20:16;37.20;;;9.77;;
13985;SDS011;7067;51.832;8.296;2024-01-25T14:22:43;32.28;;;9.10;;
13985;SDS011;7067;51.832;8.296;2024-01-25T14:25:08;36.58;;;8.35;;
13985;SDS011;7067;51.832;8.296;2024-01-25T14:27:34;32.33;;;9.25;;
13985;SDS011;7067;51.832;8.296;2024-01-25T14:29:59;38.75;;;10.25;;
13985;SDS011;7067;51.832;8.296;2024-01-25T14:32:25;38.60;;;9.27;;
13985;SDS011;7067;51.832;8.296;2024-01-25T14:34:50;29.48;;;10.50;;
13985;SDS011;7067;51.832;8.296;2024-01-25T14:37:16;38.67;;;10.75;;
13985;SDS011;7067;51.832;8.296;2024-01-25T14:39:42;40.60;;;14.07;;
13985;SDS011;7067;51.832;8.296;2024-01-25T14:42:10;41.00;;;15.63;;
13985;SDS011;7067;51.832;8.296;2024-01-25T14:44:36;45.45;;;14.18;;